sensor_id;sensor_type;location;lat;lon;timestamp;P1;durP1;ratioP1;P2;durP2;ratioP2
51901;SDS011;37929;53.218;6.548;2023-02-14T00:01:55;26.45;;;13.13;;
51901;SDS011;37929;53.218;6.548;2023-02-14T00:04:21;26.60;;;13.38;;
51901;SDS011;37929;53.218;6.548;2023-02-14T00:06:47;24.73;;;12.25;;
51901;SDS011;37929;53.218;6.548;2023-02-14T00:09:13;24.20;;;13.38;;
51901;SDS011;37929;53.218;6.548;2023-02-14T00:11:41;23.83;;;12.82;;
51901;SDS011;37929;53.218;6.548;2023-02-14T00:14:07;24.13;;;13.07;;
51901;SDS011;37929;53.218;6.548;2023-02-14T00:16:51;24.90;;;13.02;;
51901;SDS011;37929;53.218;6.548;2023-02-14T00:19:18;20.52;;;11.95;;
51901;SDS011;37929;53.218;6.548;2023-02-14T00:21:44;21.50;;;12.68;;
51901;SDS011;37929;53.218;6.548;2023-02-14T00:24:16;22.77;;;12.32;;
51901;SDS011;37929;53.218;6.548;2023-02-14T00:26:45;21.85;;;11.45;;
51901;SDS011;37929;53.218;6.548;2023-02-14T00:29:13;23.05;;;12.38;;
51901;SDS011;37929;53.218;6.548;2023-02-14T00:31:42;22.05;;;12.25;;
51901;SDS011;37929;53.218;6.548;2023-02-14T00:34:09;22.67;;;11.25;;
51901;SDS011;37929;53.218;6.548;2023-02-14T00:36:36;23.95;;;12.43;;
51901;SDS011;37929;53.218;6.548;2023-02-14T00:39:03;22.33;;;11.55;;
51901;SDS011;37929;53.218;6.548;2023-02-14T00:41:30;22.25;;;11.95;;
51901;SDS011;37929;53.218;6.548;2023-02-14T00:43:56;22.02;;;11.75;;
51901;SDS011;37929;53.218;6.548;2023-02-14T00:46:22;21.30;;;11.95;;
51901;SDS011;37929;53.218;6.548;2023-02-14T00:48:48;21.02;;;11.70;;
51901;SDS011;37929;53.218;6.548;2023-02-14T00:51:15;22.17;;;11.93;;
51901;SDS011;37929;53.218;6.548;2023-02-14T00:53:42;20.45;;;11.43;;
51901;SDS011;37929;53.218;6.548;2023-02-14T00:56:08;20.45;;;11.60;;
51901;SDS011;37929;53.218;6.548;2023-02-14T00:58:34;22.88;;;12.20;;
51901;SDS011;37929;53.218;6.548;2023-02-14T01:01:00;20.27;;;11.23;;
51901;SDS011;37929;53.218;6.548;2023-02-14T01:03:26;21.08;;;11.48;;
51901;SDS011;37929;53.218;6.548;2023-02-14T01:05:52;22.65;;;12.00;;
51901;SDS011;37929;53.218;6.548;2023-02-14T01:08:18;19.33;;;11.35;;
51901;SDS011;37929;53.218;6.548;2023-02-14T01:10:44;19.73;;;11.32;;
51901;SDS011;37929;53.218;6.548;2023-02-14T01:13:13;21.90;;;11.65;;
51901;SDS011;37929;53.218;6.548;2023-02-14T01:15:40;19.67;;;10.82;;
51901;SDS011;37929;53.218;6.548;2023-02-14T01:18:08;22.98;;;12.45;;
51901;SDS011;37929;53.218;6.548;2023-02-14T01:20:35;21.17;;;11.30;;
51901;SDS011;37929;53.218;6.548;2023-02-14T01:23:00;22.45;;;11.50;;
51901;SDS011;37929;53.218;6.548;2023-02-14T01:25:27;19.40;;;10.57;;
51901;SDS011;37929;53.218;6.548;2023-02-14T01:27:53;22.17;;;11.13;;
51901;SDS011;37929;53.218;6.548;2023-02-14T01:30:19;20.60;;;10.63;;
51901;SDS011;37929;53.218;6.548;2023-02-14T01:32:45;21.45;;;11.50;;
51901;SDS011;37929;53.218;6.548;2023-02-14T01:35:11;22.45;;;11.40;;
51901;SDS011;37929;53.218;6.548;2023-02-14T01:37:37;24.85;;;12.95;;
51901;SDS011;37929;53.218;6.548;2023-02-14T01:40:03;19.52;;;11.40;;
51901;SDS011;37929;53.218;6.548;2023-02-14T01:42:34;23.38;;;11.82;;
51901;SDS011;37929;53.218;6.548;2023-02-14T01:47:26;18.83;;;10.48;;
51901;SDS011;37929;53.218;6.548;2023-02-14T01:49:56;17.65;;;10.20;;
51901;SDS011;37929;53.218;6.548;2023-02-14T01:53:27;17.63;;;10.27;;
51901;SDS011;37929;53.218;6.548;2023-02-14T01:55:33;19.42;;;11.13;;
51901;SDS011;37929;53.218;6.548;2023-02-14T01:58:03;19.65;;;10.98;;
51901;SDS011;37929;53.218;6.548;2023-02-14T02:00:36;21.17;;;11.18;;
51901;SDS011;37929;53.218;6.548;2023-02-14T02:03:33;21.90;;;11.13;;
51901;SDS011;37929;53.218;6.548;2023-02-14T02:06:10;21.98;;;10.80;;
51901;SDS011;37929;53.218;6.548;2023-02-14T02:08:56;19.83;;;11.13;;
51901;SDS011;37929;53.218;6.548;2023-02-14T02:11:27;19.60;;;11.32;;
51901;SDS011;37929;53.218;6.548;2023-02-14T02:13:53;20.33;;;10.68;;
51901;SDS011;37929;53.218;6.548;2023-02-14T02:52:13;24.67;;;12.20;;
51901;SDS011;37929;53.218;6.548;2023-02-14T02:58:23;28.55;;;13.65;;
51901;SDS011;37929;53.218;6.548;2023-02-14T03:00:52;23.63;;;12.80;;
51901;SDS011;37929;53.218;6.548;2023-02-14T03:03:20;26.00;;;12.55;;
51901;SDS011;37929;53.218;6.548;2023-02-14T03:06:06;24.33;;;13.13;;
51901;SDS011;37929;53.218;6.548;2023-02-14T03:08:32;30.75;;;15.35;;
51901;SDS011;37929;53.218;6.548;2023-02-14T03:10:58;26.90;;;12.95;;
51901;SDS011;37929;53.218;6.548;2023-02-14T03:14:03;28.50;;;13.48;;
51901;SDS011;37929;53.218;6.548;2023-02-14T03:16:24;26.85;;;13.23;;
51901;SDS011;37929;53.218;6.548;2023-02-14T03:19:09;24.83;;;13.68;;
51901;SDS011;37929;53.218;6.548;2023-02-14T03:22:15;24.45;;;12.80;;
51901;SDS011;37929;53.218;6.548;2023-02-14T03:24:55;29.48;;;13.52;;
51901;SDS011;37929;53.218;6.548;2023-02-14T03:27:31;27.98;;;13.70;;
51901;SDS011;37929;53.218;6.548;2023-02-14T03:32:40;30.30;;;14.02;;
51901;SDS011;37929;53.218;6.548;2023-02-14T03:35:15;30.73;;;15.38;;
51901;SDS011;37929;53.218;6.548;2023-02-14T03:37:50;24.88;;;13.15;;
51901;SDS011;37929;53.218;6.548;2023-02-14T03:40:28;25.88;;;14.38;;
51901;SDS011;37929;53.218;6.548;2023-02-14T03:43:06;28.20;;;14.23;;
51901;SDS011;37929;53.218;6.548;2023-02-14T03:45:43;26.85;;;13.35;;
51901;SDS011;37929;53.218;6.548;2023-02-14T03:48:18;23.35;;;13.02;;
51901;SDS011;37929;53.218;6.548;2023-02-14T03:50:48;26.23;;;13.65;;
51901;SDS011;37929;53.218;6.548;2023-02-14T03:53:18;25.60;;;11.93;;
51901;SDS011;37929;53.218;6.548;2023-02-14T03:55:51;22.67;;;12.13;;
51901;SDS011;37929;53.218;6.548;2023-02-14T03:58:36;23.30;;;12.80;;
51901;SDS011;37929;53.218;6.548;2023-02-14T04:01:07;22.92;;;12.07;;
51901;SDS011;37929;53.218;6.548;2023-02-14T04:03:38;22.55;;;11.32;;
51901;SDS011;37929;53.218;6.548;2023-02-14T04:06:05;23.85;;;12.10;;
51901;SDS011;37929;53.218;6.548;2023-02-14T04:08:31;24.40;;;12.30;;
51901;SDS011;37929;53.218;6.548;2023-02-14T04:10:58;23.35;;;12.45;;
51901;SDS011;37929;53.218;6.548;2023-02-14T04:13:26;23.02;;;12.38;;
51901;SDS011;37929;53.218;6.548;2023-02-14T04:15:52;26.58;;;13.20;;
51901;SDS011;37929;53.218;6.548;2023-02-14T04:18:17;26.52;;;13.48;;
51901;SDS011;37929;53.218;6.548;2023-02-14T04:21:02;24.10;;;12.40;;
51901;SDS011;37929;53.218;6.548;2023-02-14T04:23:28;25.20;;;13.27;;
51901;SDS011;37929;53.218;6.548;2023-02-14T04:25:53;24.13;;;12.45;;
51901;SDS011;37929;53.218;6.548;2023-02-14T04:28:19;24.85;;;12.45;;
51901;SDS011;37929;53.218;6.548;2023-02-14T04:30:45;27.00;;;13.68;;
51901;SDS011;37929;53.218;6.548;2023-02-14T04:33:11;24.80;;;13.07;;
51901;SDS011;37929;53.218;6.548;2023-02-14T04:35:36;26.88;;;12.32;;
51901;SDS011;37929;53.218;6.548;2023-02-14T04:38:02;22.08;;;12.57;;
51901;SDS011;37929;53.218;6.548;2023-02-14T04:40:28;22.25;;;12.63;;
51901;SDS011;37929;53.218;6.548;2023-02-14T04:42:54;27.60;;;13.55;;
51901;SDS011;37929;53.218;6.548;2023-02-14T04:45:20;24.17;;;12.32;;
51901;SDS011;37929;53.218;6.548;2023-02-14T04:47:46;25.05;;;12.65;;
51901;SDS011;37929;53.218;6.548;2023-02-14T04:50:12;21.38;;;12.23;;
51901;SDS011;37929;53.218;6.548;2023-02-14T04:52:39;27.27;;;13.10;;
51901;SDS011;37929;53.218;6.548;2023-02-14T04:55:05;23.50;;;12.70;;
51901;SDS011;37929;53.218;6.548;2023-02-14T04:57:32;27.73;;;13.20;;
51901;SDS011;37929;53.218;6.548;2023-02-14T04:59:58;27.73;;;13.57;;
51901;SDS011;37929;53.218;6.548;2023-02-14T05:02:23;23.83;;;13.48;;
51901;SDS011;37929;53.218;6.548;2023-02-14T05:04:49;27.90;;;13.23;;
51901;SDS011;37929;53.218;6.548;2023-02-14T05:07:15;26.83;;;13.20;;
51901;SDS011;37929;53.218;6.548;2023-02-14T05:09:41;32.25;;;14.80;;
51901;SDS011;37929;53.218;6.548;2023-02-14T05:12:07;23.73;;;13.35;;
51901;SDS011;37929;53.218;6.548;2023-02-14T05:14:32;26.45;;;13.50;;
51901;SDS011;37929;53.218;6.548;2023-02-14T05:16:58;29.23;;;13.48;;
51901;SDS011;37929;53.218;6.548;2023-02-14T05:19:24;24.08;;;13.90;;
51901;SDS011;37929;53.218;6.548;2023-02-14T05:21:51;27.35;;;13.95;;
51901;SDS011;37929;53.218;6.548;2023-02-14T05:24:16;29.10;;;13.38;;
51901;SDS011;37929;53.218;6.548;2023-02-14T05:26:42;29.45;;;13.70;;
51901;SDS011;37929;53.218;6.548;2023-02-14T05:29:08;28.52;;;14.75;;
51901;SDS011;37929;53.218;6.548;2023-02-14T05:31:33;30.77;;;14.95;;
51901;SDS011;37929;53.218;6.548;2023-02-14T05:33:59;28.60;;;14.35;;
51901;SDS011;37929;53.218;6.548;2023-02-14T05:36:25;26.17;;;13.52;;
51901;SDS011;37929;53.218;6.548;2023-02-14T05:38:51;26.73;;;14.27;;
51901;SDS011;37929;53.218;6.548;2023-02-14T05:41:16;23.52;;;12.02;;
51901;SDS011;37929;53.218;6.548;2023-02-14T05:43:43;28.88;;;13.02;;
51901;SDS011;37929;53.218;6.548;2023-02-14T05:46:09;25.73;;;12.27;;
51901;SDS011;37929;53.218;6.548;2023-02-14T05:48:34;24.45;;;13.20;;
51901;SDS011;37929;53.218;6.548;2023-02-14T05:51:07;27.85;;;14.60;;
51901;SDS011;37929;53.218;6.548;2023-02-14T05:53:34;26.40;;;13.85;;
51901;SDS011;37929;53.218;6.548;2023-02-14T05:56:00;28.55;;;14.10;;
51901;SDS011;37929;53.218;6.548;2023-02-14T05:58:26;28.80;;;13.75;;
51901;SDS011;37929;53.218;6.548;2023-02-14T06:00:52;32.33;;;13.80;;
51901;SDS011;37929;53.218;6.548;2023-02-14T06:03:18;31.55;;;13.45;;
51901;SDS011;37929;53.218;6.548;2023-02-14T06:05:43;28.75;;;14.25;;
51901;SDS011;37929;53.218;6.548;2023-02-14T06:08:09;29.98;;;14.07;;
51901;SDS011;37929;53.218;6.548;2023-02-14T06:10:35;27.88;;;12.40;;
51901;SDS011;37929;53.218;6.548;2023-02-14T06:13:00;27.75;;;13.40;;
51901;SDS011;37929;53.218;6.548;2023-02-14T06:15:26;26.85;;;13.18;;
51901;SDS011;37929;53.218;6.548;2023-02-14T06:17:55;34.65;;;14.32;;
51901;SDS011;37929;53.218;6.548;2023-02-14T06:20:22;29.52;;;13.45;;
51901;SDS011;37929;53.218;6.548;2023-02-14T06:22:49;32.15;;;13.65;;
51901;SDS011;37929;53.218;6.548;2023-02-14T06:25:15;28.88;;;15.02;;
51901;SDS011;37929;53.218;6.548;2023-02-14T06:27:41;31.10;;;14.60;;
51901;SDS011;37929;53.218;6.548;2023-02-14T06:30:07;29.52;;;14.43;;
51901;SDS011;37929;53.218;6.548;2023-02-14T06:32:34;28.95;;;14.30;;
51901;SDS011;37929;53.218;6.548;2023-02-14T06:35:00;32.80;;;14.05;;
51901;SDS011;37929;53.218;6.548;2023-02-14T06:37:27;31.90;;;13.98;;
51901;SDS011;37929;53.218;6.548;2023-02-14T06:39:53;27.15;;;14.68;;
51901;SDS011;37929;53.218;6.548;2023-02-14T06:42:18;32.88;;;14.60;;
51901;SDS011;37929;53.218;6.548;2023-02-14T06:44:47;30.38;;;14.60;;
51901;SDS011;37929;53.218;6.548;2023-02-14T06:47:13;33.30;;;15.13;;
51901;SDS011;37929;53.218;6.548;2023-02-14T06:49:39;28.50;;;14.02;;
51901;SDS011;37929;53.218;6.548;2023-02-14T06:52:05;29.80;;;14.73;;
51901;SDS011;37929;53.218;6.548;2023-02-14T06:54:30;29.70;;;14.02;;
51901;SDS011;37929;53.218;6.548;2023-02-14T06:56:57;34.72;;;14.52;;
51901;SDS011;37929;53.218;6.548;2023-02-14T06:59:22;30.33;;;14.23;;
51901;SDS011;37929;53.218;6.548;2023-02-14T07:01:48;30.02;;;13.70;;
51901;SDS011;37929;53.218;6.548;2023-02-14T07:04:14;29.60;;;12.95;;
51901;SDS011;37929;53.218;6.548;2023-02-14T07:06:41;28.33;;;13.73;;
51901;SDS011;37929;53.218;6.548;2023-02-14T07:09:08;27.38;;;14.10;;
51901;SDS011;37929;53.218;6.548;2023-02-14T07:11:34;25.95;;;13.27;;
51901;SDS011;37929;53.218;6.548;2023-02-14T07:14:00;27.13;;;13.45;;
51901;SDS011;37929;53.218;6.548;2023-02-14T07:16:26;25.17;;;13.27;;
51901;SDS011;37929;53.218;6.548;2023-02-14T07:18:52;24.80;;;13.43;;
51901;SDS011;37929;53.218;6.548;2023-02-14T07:21:17;27.83;;;13.13;;
51901;SDS011;37929;53.218;6.548;2023-02-14T07:23:43;25.00;;;13.40;;
51901;SDS011;37929;53.218;6.548;2023-02-14T07:26:14;29.38;;;13.75;;
51901;SDS011;37929;53.218;6.548;2023-02-14T07:28:43;24.70;;;13.07;;
51901;SDS011;37929;53.218;6.548;2023-02-14T07:31:09;24.55;;;12.93;;
51901;SDS011;37929;53.218;6.548;2023-02-14T07:33:36;25.15;;;13.38;;
51901;SDS011;37929;53.218;6.548;2023-02-14T07:36:05;25.98;;;12.73;;
51901;SDS011;37929;53.218;6.548;2023-02-14T07:38:32;23.30;;;12.80;;
51901;SDS011;37929;53.218;6.548;2023-02-14T07:40:59;21.92;;;11.93;;
51901;SDS011;37929;53.218;6.548;2023-02-14T07:43:25;24.15;;;12.05;;
51901;SDS011;37929;53.218;6.548;2023-02-14T07:45:51;23.00;;;11.82;;
51901;SDS011;37929;53.218;6.548;2023-02-14T07:48:17;22.42;;;12.52;;
51901;SDS011;37929;53.218;6.548;2023-02-14T07:50:42;20.10;;;11.13;;
51901;SDS011;37929;53.218;6.548;2023-02-14T07:53:08;20.70;;;11.75;;
51901;SDS011;37929;53.218;6.548;2023-02-14T07:55:34;24.10;;;11.57;;
51901;SDS011;37929;53.218;6.548;2023-02-14T07:58:00;18.90;;;11.27;;
51901;SDS011;37929;53.218;6.548;2023-02-14T08:00:26;18.05;;;10.80;;
51901;SDS011;37929;53.218;6.548;2023-02-14T08:02:52;18.95;;;10.95;;
51901;SDS011;37929;53.218;6.548;2023-02-14T08:05:20;22.13;;;10.95;;
51901;SDS011;37929;53.218;6.548;2023-02-14T08:07:46;21.95;;;12.13;;
51901;SDS011;37929;53.218;6.548;2023-02-14T08:10:12;22.33;;;11.48;;
51901;SDS011;37929;53.218;6.548;2023-02-14T08:12:38;22.42;;;10.85;;
51901;SDS011;37929;53.218;6.548;2023-02-14T08:15:23;20.58;;;11.68;;
51901;SDS011;37929;53.218;6.548;2023-02-14T08:18:09;20.02;;;11.90;;
51901;SDS011;37929;53.218;6.548;2023-02-14T08:20:35;19.20;;;11.50;;
51901;SDS011;37929;53.218;6.548;2023-02-14T08:23:01;20.63;;;11.25;;
51901;SDS011;37929;53.218;6.548;2023-02-14T08:25:27;24.33;;;12.30;;
51901;SDS011;37929;53.218;6.548;2023-02-14T08:27:52;21.73;;;12.13;;
51901;SDS011;37929;53.218;6.548;2023-02-14T08:30:19;22.33;;;12.60;;
51901;SDS011;37929;53.218;6.548;2023-02-14T08:32:46;22.75;;;12.60;;
51901;SDS011;37929;53.218;6.548;2023-02-14T08:35:11;20.75;;;11.82;;
51901;SDS011;37929;53.218;6.548;2023-02-14T08:37:37;22.63;;;12.15;;
51901;SDS011;37929;53.218;6.548;2023-02-14T08:40:03;23.63;;;12.18;;
51901;SDS011;37929;53.218;6.548;2023-02-14T08:42:29;20.98;;;11.55;;
51901;SDS011;37929;53.218;6.548;2023-02-14T08:44:56;20.63;;;11.60;;
51901;SDS011;37929;53.218;6.548;2023-02-14T08:47:21;21.70;;;12.15;;
51901;SDS011;37929;53.218;6.548;2023-02-14T08:49:47;23.20;;;11.55;;
51901;SDS011;37929;53.218;6.548;2023-02-14T08:52:14;23.33;;;12.20;;
51901;SDS011;37929;53.218;6.548;2023-02-14T08:54:40;20.20;;;10.77;;
51901;SDS011;37929;53.218;6.548;2023-02-14T08:57:06;19.42;;;11.60;;
51901;SDS011;37929;53.218;6.548;2023-02-14T08:59:31;22.45;;;12.93;;
51901;SDS011;37929;53.218;6.548;2023-02-14T09:01:58;19.73;;;11.35;;
51901;SDS011;37929;53.218;6.548;2023-02-14T09:04:24;23.63;;;12.80;;
51901;SDS011;37929;53.218;6.548;2023-02-14T09:06:49;25.05;;;13.23;;
51901;SDS011;37929;53.218;6.548;2023-02-14T09:09:15;21.70;;;13.73;;
51901;SDS011;37929;53.218;6.548;2023-02-14T09:11:44;23.95;;;13.55;;
51901;SDS011;37929;53.218;6.548;2023-02-14T09:14:10;21.67;;;13.57;;
51901;SDS011;37929;53.218;6.548;2023-02-14T09:16:36;21.10;;;12.80;;
51901;SDS011;37929;53.218;6.548;2023-02-14T09:19:02;25.17;;;14.18;;
51901;SDS011;37929;53.218;6.548;2023-02-14T09:21:27;25.75;;;13.55;;
51901;SDS011;37929;53.218;6.548;2023-02-14T09:23:53;21.92;;;13.65;;
51901;SDS011;37929;53.218;6.548;2023-02-14T09:26:19;20.67;;;13.50;;
51901;SDS011;37929;53.218;6.548;2023-02-14T09:28:46;22.52;;;14.07;;
51901;SDS011;37929;53.218;6.548;2023-02-14T09:31:13;22.65;;;13.57;;
51901;SDS011;37929;53.218;6.548;2023-02-14T09:33:41;22.67;;;13.35;;
51901;SDS011;37929;53.218;6.548;2023-02-14T09:36:08;21.02;;;12.75;;
51901;SDS011;37929;53.218;6.548;2023-02-14T09:38:52;19.27;;;13.05;;
51901;SDS011;37929;53.218;6.548;2023-02-14T09:41:28;19.90;;;12.90;;
51901;SDS011;37929;53.218;6.548;2023-02-14T09:44:09;20.08;;;12.95;;
51901;SDS011;37929;53.218;6.548;2023-02-14T09:46:42;18.63;;;12.95;;
51901;SDS011;37929;53.218;6.548;2023-02-14T09:49:13;19.90;;;13.35;;
51901;SDS011;37929;53.218;6.548;2023-02-14T09:51:46;20.40;;;12.95;;
51901;SDS011;37929;53.218;6.548;2023-02-14T09:54:20;20.52;;;13.20;;
51901;SDS011;37929;53.218;6.548;2023-02-14T09:57:00;23.25;;;13.38;;
51901;SDS011;37929;53.218;6.548;2023-02-14T09:59:28;20.65;;;13.98;;
51901;SDS011;37929;53.218;6.548;2023-02-14T10:13:21;20.83;;;13.93;;
51901;SDS011;37929;53.218;6.548;2023-02-14T10:16:06;21.95;;;14.85;;
51901;SDS011;37929;53.218;6.548;2023-02-14T10:18:41;19.73;;;13.68;;
51901;SDS011;37929;53.218;6.548;2023-02-14T10:21:26;20.10;;;13.68;;
51901;SDS011;37929;53.218;6.548;2023-02-14T10:23:57;20.40;;;14.00;;
51901;SDS011;37929;53.218;6.548;2023-02-14T10:26:34;21.35;;;14.07;;
51901;SDS011;37929;53.218;6.548;2023-02-14T10:29:07;21.13;;;13.68;;
51901;SDS011;37929;53.218;6.548;2023-02-14T10:31:46;23.45;;;15.25;;
51901;SDS011;37929;53.218;6.548;2023-02-14T10:37:12;19.35;;;13.38;;
51901;SDS011;37929;53.218;6.548;2023-02-14T10:45:35;21.30;;;14.30;;
51901;SDS011;37929;53.218;6.548;2023-02-14T10:56:37;23.02;;;14.82;;
51901;SDS011;37929;53.218;6.548;2023-02-14T10:59:18;22.42;;;14.00;;
51901;SDS011;37929;53.218;6.548;2023-02-14T11:01:50;24.40;;;15.10;;
51901;SDS011;37929;53.218;6.548;2023-02-14T11:04:19;24.27;;;15.80;;
51901;SDS011;37929;53.218;6.548;2023-02-14T11:06:47;24.35;;;15.40;;
51901;SDS011;37929;53.218;6.548;2023-02-14T11:09:14;22.58;;;15.55;;
51901;SDS011;37929;53.218;6.548;2023-02-14T11:11:46;24.02;;;15.20;;
51901;SDS011;37929;53.218;6.548;2023-02-14T11:14:30;23.52;;;15.40;;
51901;SDS011;37929;53.218;6.548;2023-02-14T11:19:55;22.92;;;14.18;;
51901;SDS011;37929;53.218;6.548;2023-02-14T11:22:29;23.67;;;15.00;;
51901;SDS011;37929;53.218;6.548;2023-02-14T11:25:06;24.95;;;16.33;;
51901;SDS011;37929;53.218;6.548;2023-02-14T11:27:51;24.30;;;16.27;;
51901;SDS011;37929;53.218;6.548;2023-02-14T11:30:39;23.13;;;15.38;;
51901;SDS011;37929;53.218;6.548;2023-02-14T11:33:11;28.48;;;16.75;;
51901;SDS011;37929;53.218;6.548;2023-02-14T11:35:57;24.05;;;15.48;;
51901;SDS011;37929;53.218;6.548;2023-02-14T11:38:31;26.05;;;15.93;;
51901;SDS011;37929;53.218;6.548;2023-02-14T11:41:00;24.10;;;15.60;;
51901;SDS011;37929;53.218;6.548;2023-02-14T11:43:32;24.85;;;16.45;;
51901;SDS011;37929;53.218;6.548;2023-02-14T11:46:04;25.05;;;15.85;;
51901;SDS011;37929;53.218;6.548;2023-02-14T11:51:24;24.45;;;15.77;;
51901;SDS011;37929;53.218;6.548;2023-02-14T11:56:21;26.77;;;16.48;;
51901;SDS011;37929;53.218;6.548;2023-02-14T11:58:55;22.33;;;15.55;;
51901;SDS011;37929;53.218;6.548;2023-02-14T12:01:34;24.70;;;16.08;;
51901;SDS011;37929;53.218;6.548;2023-02-14T12:04:04;26.45;;;17.73;;
51901;SDS011;37929;53.218;6.548;2023-02-14T12:11:55;21.83;;;14.75;;
51901;SDS011;37929;53.218;6.548;2023-02-14T12:14:23;23.35;;;15.25;;
51901;SDS011;37929;53.218;6.548;2023-02-14T12:16:59;25.30;;;16.38;;
51901;SDS011;37929;53.218;6.548;2023-02-14T12:20:07;24.90;;;15.88;;
51901;SDS011;37929;53.218;6.548;2023-02-14T12:22:40;24.65;;;16.35;;
51901;SDS011;37929;53.218;6.548;2023-02-14T12:25:24;23.85;;;15.65;;
51901;SDS011;37929;53.218;6.548;2023-02-14T12:27:57;26.58;;;17.20;;
51901;SDS011;37929;53.218;6.548;2023-02-14T12:30:32;25.45;;;17.05;;
51901;SDS011;37929;53.218;6.548;2023-02-14T12:32:59;23.45;;;15.63;;
51901;SDS011;37929;53.218;6.548;2023-02-14T12:40:59;24.63;;;16.65;;
51901;SDS011;37929;53.218;6.548;2023-02-14T13:05:43;27.23;;;19.40;;
51901;SDS011;37929;53.218;6.548;2023-02-14T13:14:23;25.60;;;17.95;;
51901;SDS011;37929;53.218;6.548;2023-02-14T13:22:18;26.10;;;18.65;;
51901;SDS011;37929;53.218;6.548;2023-02-14T13:24:47;27.70;;;18.58;;
51901;SDS011;37929;53.218;6.548;2023-02-14T13:27:17;29.52;;;19.73;;
51901;SDS011;37929;53.218;6.548;2023-02-14T13:29:52;26.85;;;19.00;;
51901;SDS011;37929;53.218;6.548;2023-02-14T13:32:23;27.25;;;19.50;;
51901;SDS011;37929;53.218;6.548;2023-02-14T13:34:52;28.30;;;18.33;;
51901;SDS011;37929;53.218;6.548;2023-02-14T13:37:20;30.77;;;20.77;;
51901;SDS011;37929;53.218;6.548;2023-02-14T13:39:56;31.70;;;20.63;;
51901;SDS011;37929;53.218;6.548;2023-02-14T13:50:37;31.85;;;19.92;;
51901;SDS011;37929;53.218;6.548;2023-02-14T13:53:09;32.92;;;21.65;;
51901;SDS011;37929;53.218;6.548;2023-02-14T13:55:36;30.10;;;20.98;;
51901;SDS011;37929;53.218;6.548;2023-02-14T13:58:14;29.48;;;19.48;;
51901;SDS011;37929;53.218;6.548;2023-02-14T14:00:44;28.95;;;19.70;;
51901;SDS011;37929;53.218;6.548;2023-02-14T14:03:15;28.27;;;18.38;;
51901;SDS011;37929;53.218;6.548;2023-02-14T14:06:11;27.15;;;18.67;;
51901;SDS011;37929;53.218;6.548;2023-02-14T14:08:38;29.48;;;20.05;;
51901;SDS011;37929;53.218;6.548;2023-02-14T14:11:09;28.63;;;19.98;;
51901;SDS011;37929;53.218;6.548;2023-02-14T14:13:57;28.95;;;19.08;;
51901;SDS011;37929;53.218;6.548;2023-02-14T14:16:32;30.00;;;19.63;;
51901;SDS011;37929;53.218;6.548;2023-02-14T14:24:01;27.40;;;19.23;;
51901;SDS011;37929;53.218;6.548;2023-02-14T14:29:25;30.48;;;19.83;;
51901;SDS011;37929;53.218;6.548;2023-02-14T14:31:56;30.67;;;19.40;;
51901;SDS011;37929;53.218;6.548;2023-02-14T14:34:23;28.48;;;20.25;;
51901;SDS011;37929;53.218;6.548;2023-02-14T14:37:05;30.63;;;20.15;;
51901;SDS011;37929;53.218;6.548;2023-02-14T14:39:39;28.92;;;19.38;;
51901;SDS011;37929;53.218;6.548;2023-02-14T14:42:08;28.42;;;19.35;;
51901;SDS011;37929;53.218;6.548;2023-02-14T14:44:44;28.10;;;17.98;;
51901;SDS011;37929;53.218;6.548;2023-02-14T14:47:23;29.63;;;20.07;;
51901;SDS011;37929;53.218;6.548;2023-02-14T14:49:56;27.40;;;19.60;;
51901;SDS011;37929;53.218;6.548;2023-02-14T14:54:57;28.70;;;18.63;;
51901;SDS011;37929;53.218;6.548;2023-02-14T14:57:23;27.92;;;19.55;;
51901;SDS011;37929;53.218;6.548;2023-02-14T14:59:49;27.65;;;18.67;;
51901;SDS011;37929;53.218;6.548;2023-02-14T15:02:31;31.20;;;19.38;;
51901;SDS011;37929;53.218;6.548;2023-02-14T15:05:04;27.45;;;18.67;;
51901;SDS011;37929;53.218;6.548;2023-02-14T15:07:41;30.08;;;19.75;;
51901;SDS011;37929;53.218;6.548;2023-02-14T15:10:20;28.67;;;19.42;;
51901;SDS011;37929;53.218;6.548;2023-02-14T15:12:50;31.08;;;19.88;;
51901;SDS011;37929;53.218;6.548;2023-02-14T15:15:35;30.58;;;20.25;;
51901;SDS011;37929;53.218;6.548;2023-02-14T15:18:05;28.23;;;19.90;;
51901;SDS011;37929;53.218;6.548;2023-02-14T15:20:32;30.50;;;19.45;;
51901;SDS011;37929;53.218;6.548;2023-02-14T15:22:59;28.90;;;18.63;;
51901;SDS011;37929;53.218;6.548;2023-02-14T15:25:33;29.80;;;18.88;;
51901;SDS011;37929;53.218;6.548;2023-02-14T15:28:00;29.67;;;18.80;;
51901;SDS011;37929;53.218;6.548;2023-02-14T15:30:28;29.10;;;18.95;;
51901;SDS011;37929;53.218;6.548;2023-02-14T15:33:02;27.98;;;18.38;;
51901;SDS011;37929;53.218;6.548;2023-02-14T15:35:32;29.70;;;18.93;;
51901;SDS011;37929;53.218;6.548;2023-02-14T15:38:02;28.15;;;18.80;;
51901;SDS011;37929;53.218;6.548;2023-02-14T15:40:31;26.60;;;17.63;;
51901;SDS011;37929;53.218;6.548;2023-02-14T15:43:01;28.83;;;18.17;;
51901;SDS011;37929;53.218;6.548;2023-02-14T15:45:52;27.20;;;17.83;;
51901;SDS011;37929;53.218;6.548;2023-02-14T15:48:31;26.63;;;18.33;;
51901;SDS011;37929;53.218;6.548;2023-02-14T15:50:58;30.60;;;19.40;;
51901;SDS011;37929;53.218;6.548;2023-02-14T15:56:02;30.95;;;19.13;;
51901;SDS011;37929;53.218;6.548;2023-02-14T15:58:39;28.15;;;18.58;;
51901;SDS011;37929;53.218;6.548;2023-02-14T16:01:05;30.65;;;19.33;;
51901;SDS011;37929;53.218;6.548;2023-02-14T16:03:33;29.77;;;19.33;;
51901;SDS011;37929;53.218;6.548;2023-02-14T16:06:02;29.27;;;17.60;;
51901;SDS011;37929;53.218;6.548;2023-02-14T16:08:35;28.10;;;17.88;;
51901;SDS011;37929;53.218;6.548;2023-02-14T16:11:03;32.63;;;18.92;;
51901;SDS011;37929;53.218;6.548;2023-02-14T16:13:34;32.47;;;19.08;;
51901;SDS011;37929;53.218;6.548;2023-02-14T16:16:02;31.52;;;19.05;;
51901;SDS011;37929;53.218;6.548;2023-02-14T16:18:34;28.98;;;18.65;;
51901;SDS011;37929;53.218;6.548;2023-02-14T16:21:12;30.23;;;18.63;;
51901;SDS011;37929;53.218;6.548;2023-02-14T16:26:35;31.20;;;18.20;;
51901;SDS011;37929;53.218;6.548;2023-02-14T16:29:07;36.65;;;23.05;;
51901;SDS011;37929;53.218;6.548;2023-02-14T16:31:34;53.47;;;32.40;;
51901;SDS011;37929;53.218;6.548;2023-02-14T16:34:07;78.47;;;48.35;;
51901;SDS011;37929;53.218;6.548;2023-02-14T16:36:35;65.43;;;39.08;;
51901;SDS011;37929;53.218;6.548;2023-02-14T16:39:01;59.63;;;39.38;;
51901;SDS011;37929;53.218;6.548;2023-02-14T16:41:32;63.40;;;41.00;;
51901;SDS011;37929;53.218;6.548;2023-02-14T16:43:58;61.45;;;40.88;;
51901;SDS011;37929;53.218;6.548;2023-02-14T16:46:25;57.92;;;38.60;;
51901;SDS011;37929;53.218;6.548;2023-02-14T16:48:54;58.22;;;37.47;;
51901;SDS011;37929;53.218;6.548;2023-02-14T16:51:22;50.58;;;32.42;;
51901;SDS011;37929;53.218;6.548;2023-02-14T16:53:54;48.17;;;31.42;;
51901;SDS011;37929;53.218;6.548;2023-02-14T16:59:09;39.75;;;24.75;;
51901;SDS011;37929;53.218;6.548;2023-02-14T17:01:35;39.22;;;24.05;;
51901;SDS011;37929;53.218;6.548;2023-02-14T17:04:01;32.83;;;20.25;;
51901;SDS011;37929;53.218;6.548;2023-02-14T17:06:28;30.13;;;18.77;;
51901;SDS011;37929;53.218;6.548;2023-02-14T17:08:57;32.35;;;19.23;;
51901;SDS011;37929;53.218;6.548;2023-02-14T17:11:27;30.88;;;19.60;;